createdAt,value
2018-05-26T00:00:13.530Z,31.1
2018-05-26T00:01:04.152Z,31.1
2018-05-26T00:01:54.526Z,31.1
2018-05-26T00:02:44.569Z,31.1
2018-05-26T00:03:34.325Z,31.1
2018-05-26T00:04:24.412Z,31.1
2018-05-26T00:05:14.519Z,31.1
2018-05-26T00:06:04.840Z,31.1
2018-05-26T00:06:54.310Z,31.1
2018-05-26T00:07:44.420Z,31.1
2018-05-26T00:08:34.709Z,31.1
2018-05-26T00:09:24.868Z,31.1
2018-05-26T00:10:14.962Z,31.1
2018-05-26T00:11:04.918Z,31.1
2018-05-26T00:11:55.262Z,31
2018-05-26T00:12:45.333Z,31.1
2018-05-26T00:13:35.392Z,31
2018-05-26T00:14:24.938Z,31
2018-05-26T00:15:15.547Z,31
2018-05-26T00:16:05.313Z,31
2018-05-26T00:16:55.657Z,31
2018-05-26T00:17:45.486Z,31
2018-05-26T00:18:35.789Z,31
2018-05-26T00:19:25.582Z,31
2018-05-26T00:20:15.927Z,31
2018-05-26T00:21:05.951Z,31
2018-05-26T00:21:55.748Z,31
2018-05-26T00:22:46.118Z,30.9
2018-05-26T00:23:36.191Z,30.9
2018-05-26T00:24:26.023Z,31
2018-05-26T00:25:16.281Z,31
2018-05-26T00:26:06.353Z,30.9
2018-05-26T00:26:55.883Z,30.9
2018-05-26T00:27:46.497Z,30.9
2018-05-26T00:28:36.542Z,30.9
2018-05-26T00:29:26.711Z,30.9
2018-05-26T00:30:16.379Z,30.9
2018-05-26T00:31:05.883Z,30.9
2018-05-26T00:31:56.233Z,30.9
2018-05-26T00:32:46.578Z,30.9
2018-05-26T00:33:36.362Z,30.9
2018-05-26T00:34:26.466Z,30.9
2018-05-26T00:35:16.477Z,30.9
2018-05-26T00:36:06.559Z,30.9
2018-05-26T00:36:56.891Z,30.9
2018-05-26T00:37:46.870Z,30.9
2018-05-26T00:38:37.035Z,30.9
2018-05-26T00:39:27.110Z,30.9
2018-05-26T00:40:17.154Z,30.9
2018-05-26T00:41:07.507Z,30.9
2018-05-26T00:41:57.286Z,30.9
2018-05-26T00:42:47.077Z,30.9
2018-05-26T00:43:37.689Z,30.9
2018-05-26T00:44:27.817Z,30.9
2018-05-26T00:45:17.804Z,30.9
2018-05-26T00:46:07.875Z,30.9
2018-05-26T00:46:57.977Z,30.9
2018-05-26T00:47:47.731Z,30.9
2018-05-26T00:48:37.518Z,30.9
2018-05-26T00:49:28.179Z,30.9
2018-05-26T00:50:17.639Z,30.9
2018-05-26T00:51:08.018Z,30.9
2018-05-26T00:51:57.794Z,30.9
2018-05-26T00:52:48.154Z,30.8
2018-05-26T00:53:37.323Z,30.9
2018-05-26T00:54:28.060Z,30.9
2018-05-26T00:55:18.609Z,30.9
2018-05-26T00:56:08.384Z,30.8
2018-05-26T00:56:57.891Z,30.8
2018-05-26T00:57:48.516Z,30.8
2018-05-26T00:58:37.693Z,30.8
2018-05-26T00:59:28.658Z,30.8
2018-05-26T01:00:18.961Z,30.8
2018-05-26T01:01:08.483Z,30.8
2018-05-26T01:01:58.532Z,30.8
2018-05-26T01:02:48.610Z,30.8
2018-05-26T01:03:38.963Z,30.8
2018-05-26T01:04:28.832Z,30.8
2018-05-26T01:05:19.099Z,30.8
2018-05-26T01:06:09.156Z,30.8
2018-05-26T01:06:58.648Z,30.8
2018-05-26T01:07:49.580Z,30.8
2018-05-26T01:08:39.320Z,30.8
2018-05-26T01:09:28.845Z,30.8
2018-05-26T01:10:19.729Z,30.8
2018-05-26T01:11:09.230Z,30.8
2018-05-26T01:11:59.333Z,30.8
2018-05-26T01:12:49.682Z,30.8
2018-05-26T01:13:39.738Z,30.8
2018-05-26T01:14:30.064Z,30.8
2018-05-26T01:15:20.120Z,30.8
2018-05-26T01:16:10.217Z,30.8
2018-05-26T01:17:00.249Z,30.8
2018-05-26T01:17:50.325Z,30.8
2018-05-26T01:18:39.538Z,30.8
2018-05-26T01:19:30.461Z,30.8
2018-05-26T01:20:20.488Z,30.8
2018-05-26T01:21:10.583Z,30.8
2018-05-26T01:22:00.664Z,30.8
2018-05-26T01:22:50.404Z,30.8
2018-05-26T01:23:40.742Z,30.8
2018-05-26T01:24:30.009Z,30.8
2018-05-26T01:25:20.071Z,30.8
2018-05-26T01:26:10.928Z,30.7
2018-05-26T01:27:00.737Z,30.8
2018-05-26T01:27:51.142Z,30.7
2018-05-26T01:28:41.153Z,30.8
2018-05-26T01:29:31.195Z,30.8
2018-05-26T01:30:21.284Z,30.7
2018-05-26T01:31:11.040Z,30.7
2018-05-26T01:32:01.400Z,30.7
2018-05-26T01:32:50.906Z,30.7
2018-05-26T01:33:41.233Z,30.7
2018-05-26T01:34:31.608Z,30.7
2018-05-26T01:35:21.390Z,30.7
2018-05-26T01:36:11.456Z,30.7
2018-05-26T01:37:01.773Z,30.7
2018-05-26T01:37:51.570Z,30.7
2018-05-26T01:38:41.684Z,30.7
2018-05-26T01:39:31.983Z,30.7
2018-05-26T01:40:21.498Z,30.7
2018-05-26T01:41:11.835Z,30.7
2018-05-26T01:42:01.897Z,30.7
2018-05-26T01:42:52.256Z,30.7
2018-05-26T01:43:42.019Z,30.7
2018-05-26T01:44:32.368Z,30.7
2018-05-26T01:45:22.458Z,30.7
2018-05-26T01:46:12.498Z,30.7
2018-05-26T01:47:02.352Z,30.7
2018-05-26T01:47:52.639Z,30.7
2018-05-26T01:48:42.685Z,30.6
2018-05-26T01:49:32.456Z,30.7
2018-05-26T01:50:22.796Z,30.6
2018-05-26T01:51:12.583Z,30.6
2018-05-26T01:52:02.372Z,30.6
2018-05-26T01:52:53.022Z,30.6
2018-05-26T01:53:42.771Z,30.6
2018-05-26T01:54:32.571Z,30.6
2018-05-26T01:55:22.629Z,30.6
2018-05-26T01:56:12.971Z,30.6
2018-05-26T01:57:03.040Z,30.6
2018-05-26T01:57:53.424Z,30.6
2018-05-26T01:58:42.612Z,30.6
2018-05-26T01:59:33.498Z,30.6
2018-05-26T02:00:23.307Z,30.6
2018-05-26T02:01:13.651Z,30.6
2018-05-26T02:02:03.725Z,30.6
2018-05-26T02:02:53.465Z,30.6
2018-05-26T02:03:43.838Z,30.6
2018-05-26T02:04:33.654Z,30.6
2018-05-26T02:05:23.412Z,30.6
2018-05-26T02:06:13.779Z,30.6
2018-05-26T02:07:03.821Z,30.6
2018-05-26T02:07:53.599Z,30.6
2018-05-26T02:08:43.939Z,30.6
2018-05-26T02:09:33.751Z,30.6
2018-05-26T02:10:23.787Z,30.6
2018-05-26T02:11:14.456Z,30.6
2018-05-26T02:12:04.259Z,30.6
2018-05-26T02:12:54.532Z,30.6
2018-05-26T02:13:44.624Z,30.6
2018-05-26T02:14:34.414Z,30.6
2018-05-26T02:15:24.751Z,30.6
2018-05-26T02:16:14.535Z,30.6
2018-05-26T02:17:04.293Z,30.6
2018-05-26T02:17:54.946Z,30.6
2018-05-26T02:18:44.459Z,30.6
2018-05-26T02:19:34.271Z,30.6
2018-05-26T02:20:25.133Z,30.6
2018-05-26T02:21:15.173Z,30.6
2018-05-26T02:22:05.250Z,30.6
2018-05-26T02:22:55.358Z,30.6
2018-05-26T02:23:45.406Z,30.5
2018-05-26T02:24:35.460Z,30.6
2018-05-26T02:25:25.522Z,30.6
2018-05-26T02:26:15.563Z,30.6
2018-05-26T02:27:05.686Z,30.5
2018-05-26T02:27:55.137Z,30.6
2018-05-26T02:28:45.744Z,30.6
2018-05-26T02:29:35.858Z,30.5
2018-05-26T02:30:25.615Z,30.5
2018-05-26T02:31:15.415Z,30.5
2018-05-26T02:32:05.461Z,30.5
2018-05-26T02:32:55.805Z,30.5
2018-05-26T02:33:45.868Z,30.5
2018-05-26T02:34:35.682Z,30.5
2018-05-26T02:35:26.259Z,30.5
2018-05-26T02:36:16.386Z,30.5
2018-05-26T02:37:06.447Z,30.5
2018-05-26T02:37:56.199Z,30.5
2018-05-26T02:38:46.285Z,30.5
2018-05-26T02:39:35.717Z,30.5
2018-05-26T02:40:26.459Z,30.5
2018-05-26T02:41:16.731Z,30.5
2018-05-26T02:42:06.918Z,30.5
2018-05-26T02:42:56.019Z,30.5
2018-05-26T02:43:46.969Z,30.5
2018-05-26T02:44:36.705Z,30.5
2018-05-26T02:45:26.184Z,30.5
2018-05-26T02:46:17.112Z,30.4
2018-05-26T02:47:06.900Z,30.5
2018-05-26T02:47:56.962Z,30.5
2018-05-26T02:48:47.040Z,30.5
2018-05-26T02:49:37.386Z,30.5
2018-05-26T02:50:27.142Z,30.5
2018-05-26T02:51:17.227Z,30.5
2018-05-26T02:52:07.609Z,30.5
2018-05-26T02:52:57.622Z,30.4
2018-05-26T02:53:46.839Z,30.5
2018-05-26T02:54:37.227Z,30.4
2018-05-26T02:55:27.844Z,30.5
2018-05-26T02:56:17.316Z,30.4
2018-05-26T02:57:07.978Z,30.4
2018-05-26T02:57:57.729Z,30.4
2018-05-26T02:58:47.241Z,30.4
2018-05-26T02:59:38.119Z,30.4
2018-05-26T03:00:27.906Z,30.4
2018-05-26T03:01:18.279Z,30.4
2018-05-26T03:02:08.354Z,30.4
2018-05-26T03:02:58.107Z,30.4
2018-05-26T03:03:48.483Z,30.4
2018-05-26T03:04:38.531Z,30.4
2018-05-26T03:05:28.585Z,30.4
2018-05-26T03:06:18.383Z,30.4
2018-05-26T03:07:08.412Z,30.4
2018-05-26T03:07:58.797Z,30.4
2018-05-26T03:08:48.271Z,30.4
2018-05-26T03:09:38.598Z,30.4
2018-05-26T03:10:28.692Z,30.4
2018-05-26T03:11:19.040Z,30.4
2018-05-26T03:12:08.540Z,30.4
2018-05-26T03:12:59.152Z,30.4
2018-05-26T03:13:48.652Z,30.4
2018-05-26T03:14:39.290Z,30.4
2018-05-26T03:15:29.331Z,30.4
2018-05-26T03:16:19.147Z,30.4
2018-05-26T03:17:09.193Z,30.4
2018-05-26T03:17:59.512Z,30.4
2018-05-26T03:18:49.372Z,30.4
2018-05-26T03:19:39.380Z,30.4
2018-05-26T03:20:29.464Z,30.4
2018-05-26T03:21:19.508Z,30.4
2018-05-26T03:22:09.586Z,30.4
2018-05-26T03:22:59.641Z,30.4
2018-05-26T03:23:49.971Z,30.4
2018-05-26T03:24:39.771Z,30.4
2018-05-26T03:25:29.624Z,30.4
2018-05-26T03:26:19.669Z,30.4
2018-05-26T03:27:10.242Z,30.4
2018-05-26T03:28:00.014Z,30.4
2018-05-26T03:28:50.352Z,30.4
2018-05-26T03:29:40.426Z,30.4
2018-05-26T03:30:30.612Z,30.4
2018-05-26T03:31:20.546Z,30.4
2018-05-26T03:32:10.625Z,30.4
2018-05-26T03:32:59.898Z,30.4
2018-05-26T03:33:49.698Z,30.4
2018-05-26T03:34:40.044Z,30.3
2018-05-26T03:35:30.373Z,30.4
2018-05-26T03:36:20.841Z,30.3
2018-05-26T03:37:09.959Z,30.3
2018-05-26T03:38:00.581Z,30.4
2018-05-26T03:38:51.139Z,30.4
2018-05-26T03:39:40.444Z,30.4
2018-05-26T03:40:31.277Z,30.3
2018-05-26T03:41:20.775Z,30.3
2018-05-26T03:42:11.093Z,30.4
2018-05-26T03:43:01.486Z,30.3
2018-05-26T03:43:51.240Z,30.3
2018-05-26T03:44:41.274Z,30.3
2018-05-26T03:45:31.367Z,30.3
2018-05-26T03:46:21.164Z,30.4
2018-05-26T03:47:11.227Z,30.3
2018-05-26T03:48:01.563Z,30.3
2018-05-26T03:48:51.357Z,30.3
2018-05-26T03:49:41.211Z,30.3
2018-05-26T03:50:31.751Z,30.3
2018-05-26T03:51:21.519Z,30.3
2018-05-26T03:52:11.887Z,30.3
2018-05-26T03:53:02.214Z,30.3
2018-05-26T03:53:51.702Z,30.3
2018-05-26T03:54:42.039Z,30.3
2018-05-26T03:55:32.398Z,30.3
2018-05-26T03:56:22.483Z,30.3
2018-05-26T03:57:12.316Z,30.3
2018-05-26T03:58:02.594Z,30.3
2018-05-26T03:58:52.676Z,30.3
2018-05-26T03:59:42.770Z,30.3
2018-05-26T04:00:32.755Z,30.3
2018-05-26T04:01:22.847Z,30.3
2018-05-26T04:02:12.901Z,30.3
2018-05-26T04:03:02.407Z,30.3
2018-05-26T04:03:52.745Z,30.3
2018-05-26T04:04:43.097Z,30.3
2018-05-26T04:05:32.863Z,30.3
2018-05-26T04:06:22.964Z,30.3
2018-05-26T04:07:12.710Z,30.3
2018-05-26T04:08:03.100Z,30.3
2018-05-26T04:08:53.424Z,30.3
2018-05-26T04:09:42.968Z,30.3
2018-05-26T04:10:32.683Z,30.3
2018-05-26T04:11:23.916Z,30.3
2018-05-26T04:12:13.668Z,30.3
2018-05-26T04:13:03.486Z,30.3
2018-05-26T04:13:53.532Z,30.3
2018-05-26T04:14:43.595Z,30.3
2018-05-26T04:15:33.940Z,30.3
2018-05-26T04:16:24.027Z,30.3
2018-05-26T04:17:14.093Z,30.3
2018-05-26T04:18:04.137Z,30.3
2018-05-26T04:18:53.642Z,30.3
2018-05-26T04:19:44.290Z,30.3
2018-05-26T04:20:34.337Z,30.3
2018-05-26T04:21:24.393Z,30.3
2018-05-26T04:22:13.889Z,30.3
2018-05-26T04:23:04.261Z,30.3
2018-05-26T04:23:54.600Z,30.3
2018-05-26T04:24:44.648Z,30.3
2018-05-26T04:25:34.692Z,30.3
2018-05-26T04:26:24.493Z,30.3
2018-05-26T04:27:14.814Z,30.3
2018-05-26T04:28:04.651Z,30.3
2018-05-26T04:28:54.692Z,30.3
2018-05-26T04:29:44.756Z,30.3
2018-05-26T04:30:35.088Z,30.3
2018-05-26T04:31:25.162Z,30.3
2018-05-26T04:32:14.942Z,30.3
2018-05-26T04:33:04.729Z,30.3
2018-05-26T04:33:54.509Z,30.3
2018-05-26T04:34:45.400Z,30.3
2018-05-26T04:35:35.291Z,30.3
2018-05-26T04:36:25.253Z,30.3
2018-05-26T04:37:15.616Z,30.3
2018-05-26T04:38:05.683Z,30.3
2018-05-26T04:38:55.488Z,30.3
2018-05-26T04:39:45.797Z,30.2
2018-05-26T04:40:35.852Z,30.3
2018-05-26T04:41:25.989Z,30.2
2018-05-26T04:42:15.807Z,30.2
2018-05-26T04:43:05.805Z,30.3
2018-05-26T04:43:55.858Z,30.2
2018-05-26T04:44:45.633Z,30.3
2018-05-26T04:45:36.233Z,30.3
2018-05-26T04:46:26.331Z,30.2
2018-05-26T04:47:16.382Z,30.2
2018-05-26T04:48:06.453Z,30.3
2018-05-26T04:48:56.249Z,30.3
2018-05-26T04:49:46.286Z,30.3
2018-05-26T04:50:36.609Z,30.2
2018-05-26T04:51:26.709Z,30.2
2018-05-26T04:52:16.457Z,30.2
2018-05-26T04:53:06.821Z,30.2
2018-05-26T04:53:56.865Z,30.2
2018-05-26T04:54:46.919Z,30.2
2018-05-26T04:55:37.021Z,30.2
2018-05-26T04:56:27.049Z,30.2
2018-05-26T04:57:17.147Z,30.2
2018-05-26T04:58:07.207Z,30.2
2018-05-26T04:58:57.243Z,30.2
2018-05-26T04:59:47.046Z,30.2
2018-05-26T05:00:37.126Z,30.2
2018-05-26T05:01:27.489Z,30.2
2018-05-26T05:02:17.527Z,30.2
2018-05-26T05:03:06.477Z,30.2
2018-05-26T05:03:57.370Z,30.2
2018-05-26T05:04:47.453Z,30.2
2018-05-26T05:05:37.633Z,30.2
2018-05-26T05:06:27.854Z,30.2
2018-05-26T05:07:17.661Z,30.2
2018-05-26T05:08:07.689Z,30.2
2018-05-26T05:08:57.767Z,30.2
2018-05-26T05:09:48.088Z,30.2
2018-05-26T05:10:37.399Z,30.2
2018-05-26T05:11:27.471Z,30.2
2018-05-26T05:12:17.829Z,30.2
2018-05-26T05:13:06.771Z,30.2
2018-05-26T05:13:57.371Z,30.2
2018-05-26T05:14:48.021Z,30.2
2018-05-26T05:15:38.080Z,30.2
2018-05-26T05:16:27.874Z,30.2
2018-05-26T05:17:18.225Z,30.2
2018-05-26T05:18:08.268Z,30.2
2018-05-26T05:18:58.251Z,30.2
2018-05-26T05:19:48.892Z,30.2
2018-05-26T05:20:38.927Z,30.2
2018-05-26T05:21:28.144Z,30.1
2018-05-26T05:22:19.084Z,30.2
2018-05-26T05:23:09.116Z,30.2
2018-05-26T05:23:58.890Z,30.2
2018-05-26T05:24:49.268Z,30.2
2018-05-26T05:25:39.310Z,30.2
2018-05-26T05:26:29.118Z,30.2
2018-05-26T05:27:19.435Z,30.2
2018-05-26T05:28:09.520Z,30.2
2018-05-26T05:28:59.582Z,30.2
2018-05-26T05:29:49.470Z,30.1
2018-05-26T05:30:39.164Z,30.2
2018-05-26T05:31:29.483Z,30.1
2018-05-26T05:32:19.576Z,30
2018-05-26T05:33:09.358Z,29.9
2018-05-26T05:33:59.674Z,29.9
2018-05-26T05:34:50.054Z,29.9
2018-05-26T05:35:39.829Z,29.8
2018-05-26T05:36:29.870Z,31.3
2018-05-26T05:37:19.635Z,39.3
2018-05-26T05:38:10.305Z,39.9
2018-05-26T05:38:59.822Z,42.2
2018-05-26T05:39:50.130Z,41.8
2018-05-26T05:40:40.472Z,40.3
2018-05-26T05:41:30.279Z,39.2
2018-05-26T05:42:20.336Z,38.5
2018-05-26T05:43:10.688Z,38
2018-05-26T05:44:00.772Z,37.6
2018-05-26T05:44:50.796Z,37.3
2018-05-26T05:45:40.870Z,36.9
2018-05-26T05:46:30.917Z,36.6
2018-05-26T05:47:20.984Z,36.4
2018-05-26T05:48:11.057Z,36.1
2018-05-26T05:49:00.590Z,35.9
2018-05-26T05:49:50.087Z,35.7
2018-05-26T05:50:41.285Z,35.5
2018-05-26T05:51:31.045Z,35.3
2018-05-26T05:52:21.422Z,35.1
2018-05-26T05:53:11.180Z,34.9
2018-05-26T05:54:01.238Z,34.8
2018-05-26T05:54:51.587Z,34.7
2018-05-26T05:55:41.376Z,34.6
2018-05-26T05:56:31.776Z,34.4
2018-05-26T05:57:21.213Z,34.3
2018-05-26T05:58:11.846Z,34.2
2018-05-26T05:59:01.619Z,34.1
2018-05-26T05:59:51.956Z,33.9
2018-05-26T06:00:42.065Z,39.9
2018-05-26T06:01:31.532Z,41.5
2018-05-26T06:02:22.159Z,43.6
2018-05-26T06:03:11.644Z,44.3
2018-05-26T06:04:02.289Z,43.9
2018-05-26T06:04:51.789Z,42.1
2018-05-26T06:05:42.404Z,40.2
2018-05-26T06:06:32.182Z,38.6
2018-05-26T06:07:22.588Z,41.8
2018-05-26T06:08:12.587Z,43.2
2018-05-26T06:09:02.384Z,44.1
2018-05-26T06:09:52.724Z,44.6
2018-05-26T06:10:42.507Z,44.8
2018-05-26T06:11:32.595Z,45
2018-05-26T06:12:22.363Z,45.2
2018-05-26T06:13:12.986Z,45.4
2018-05-26T06:14:02.586Z,45.6
2018-05-26T06:14:53.015Z,45.8
2018-05-26T06:15:43.206Z,45.9
2018-05-26T06:16:32.983Z,46
2018-05-26T06:17:23.002Z,46.1
2018-05-26T06:18:13.346Z,46.3
2018-05-26T06:19:03.452Z,46.4
2018-05-26T06:19:53.522Z,46.6
2018-05-26T06:20:43.609Z,46.7
2018-05-26T06:21:33.343Z,46.8
2018-05-26T06:22:23.442Z,46.9
2018-05-26T06:23:13.752Z,47
2018-05-26T06:24:02.956Z,47.2
2018-05-26T06:24:53.335Z,47.3
2018-05-26T06:25:43.927Z,47.4
2018-05-26T06:26:34.414Z,47.6
2018-05-26T06:27:23.528Z,47.7
2018-05-26T06:28:13.839Z,47.8
2018-05-26T06:29:03.922Z,47.9
2018-05-26T06:29:54.277Z,48
2018-05-26T06:30:44.323Z,48.1
2018-05-26T06:31:34.383Z,48.2
2018-05-26T06:32:24.183Z,48.3
2018-05-26T06:33:14.518Z,48.4
2018-05-26T06:34:04.641Z,48.6
2018-05-26T06:34:54.385Z,48.6
2018-05-26T06:35:44.453Z,48.8
2018-05-26T06:36:34.512Z,48.9
2018-05-26T06:37:24.841Z,49
2018-05-26T06:38:14.910Z,49.1
2018-05-26T06:39:04.710Z,49.2
2018-05-26T06:39:56.674Z,49.3
2018-05-26T06:40:46.476Z,49.4
2018-05-26T06:41:36.861Z,49.6
2018-05-26T06:42:26.595Z,49.6
2018-05-26T06:43:17.298Z,49.8
2018-05-26T06:44:06.027Z,49.9
2018-05-26T06:44:56.255Z,49.9
2018-05-26T06:45:47.403Z,50.1
2018-05-26T06:46:37.479Z,50.2
2018-05-26T06:47:26.999Z,50.3
2018-05-26T06:48:16.862Z,50.4
2018-05-26T06:49:07.145Z,50.4
2018-05-26T06:49:56.887Z,50.6
2018-05-26T06:50:47.989Z,50.7
2018-05-26T06:51:37.591Z,50.8
2018-05-26T06:52:27.638Z,51
2018-05-26T06:53:18.032Z,51.1
2018-05-26T06:54:07.432Z,51.2
2018-05-26T06:54:57.894Z,51.3
2018-05-26T06:55:47.662Z,51.4
2018-05-26T06:56:37.475Z,51.6
2018-05-26T06:57:28.307Z,51.7
2018-05-26T06:58:17.834Z,51.8
2018-05-26T06:59:07.899Z,51.8
2018-05-26T06:59:57.960Z,51.9
2018-05-26T07:00:48.290Z,52
2018-05-26T07:01:38.351Z,52.1
2018-05-26T07:02:28.421Z,52.2
2018-05-26T07:03:18.200Z,52.3
2018-05-26T07:04:58.395Z,52.5
2018-05-26T07:05:48.444Z,52.6
2018-05-26T07:06:39.104Z,52.7
2018-05-26T07:07:28.793Z,52.8
2018-05-26T07:08:18.916Z,52.9
2018-05-26T07:09:08.662Z,53.1
2018-05-26T07:09:59.301Z,53.2
2018-05-26T07:10:48.528Z,53.3
2018-05-26T07:11:38.972Z,53.4
2018-05-26T07:12:29.207Z,53.6
2018-05-26T07:13:19.269Z,53.7
2018-05-26T07:14:08.794Z,53.8
2018-05-26T07:14:58.897Z,53.9
2018-05-26T07:15:49.152Z,54.1
2018-05-26T07:16:39.525Z,54
2018-05-26T07:17:29.577Z,53.9
2018-05-26T07:18:19.084Z,53.9
2018-05-26T07:19:09.455Z,54.1
2018-05-26T07:19:59.226Z,54.3
2018-05-26T07:20:49.879Z,54.4
2018-05-26T07:21:39.919Z,54.5
2018-05-26T07:22:29.985Z,54.6
2018-05-26T07:23:20.339Z,54.8
2018-05-26T07:24:10.359Z,54.9
2018-05-26T07:25:00.506Z,55
2018-05-26T07:25:50.238Z,55.2
2018-05-26T07:26:40.011Z,55.3
2018-05-26T07:27:29.637Z,55.4
2018-05-26T07:28:20.166Z,55.3
2018-05-26T07:29:10.200Z,55.1
2018-05-26T07:30:00.803Z,54.9
2018-05-26T07:30:50.931Z,54.8
2018-05-26T07:31:40.696Z,55.1
2018-05-26T07:32:31.030Z,55.4
2018-05-26T07:33:20.569Z,55.7
2018-05-26T07:34:10.876Z,55.9
2018-05-26T07:35:00.949Z,56.1
2018-05-26T07:35:51.022Z,56.2
2018-05-26T07:36:41.390Z,56.3
2018-05-26T07:37:31.305Z,56.4
2018-05-26T07:38:21.248Z,56.6
2018-05-26T07:39:11.060Z,56.8
2018-05-26T07:40:01.368Z,56.9
2018-05-26T07:40:51.677Z,57.1
2018-05-26T07:41:41.733Z,57.3
2018-05-26T07:42:31.527Z,57.4
2018-05-26T07:43:20.717Z,57.4
2018-05-26T07:44:10.971Z,57.6
2018-05-26T07:45:01.987Z,57.7
2018-05-26T07:45:51.762Z,57.8
2018-05-26T07:46:40.988Z,58
2018-05-26T07:47:31.426Z,58.1
2018-05-26T07:48:21.683Z,58.2
2018-05-26T07:49:12.026Z,58.3
2018-05-26T07:50:02.370Z,58.5
2018-05-26T07:51:42.557Z,58.8
2018-05-26T07:52:32.321Z,58.9
2018-05-26T07:53:22.429Z,59
2018-05-26T07:54:12.752Z,59.1
2018-05-26T07:55:02.756Z,59.3
2018-05-26T07:55:52.856Z,59.4
2018-05-26T07:56:42.940Z,59.5
2018-05-26T07:57:32.671Z,59.6
2018-05-26T07:58:23.343Z,59.8
2018-05-26T07:59:12.894Z,59.9
2018-05-26T08:00:02.752Z,60
2018-05-26T08:00:53.196Z,60.1
2018-05-26T08:01:43.276Z,60.3
2018-05-26T08:02:33.346Z,60.3
2018-05-26T08:03:23.143Z,60.4
2018-05-26T08:04:13.210Z,60.6
2018-05-26T08:05:03.556Z,60.7
2018-05-26T08:05:53.305Z,60.8
2018-05-26T08:06:43.396Z,60.9
2018-05-26T08:07:32.905Z,61.1
2018-05-26T08:08:23.246Z,61.2
2018-05-26T08:09:13.612Z,61.3
2018-05-26T08:10:03.429Z,61.4
2018-05-26T08:10:54.412Z,61.6
2018-05-26T08:11:43.864Z,61.6
2018-05-26T08:12:33.871Z,61.8
2018-05-26T08:13:24.189Z,61.9
2018-05-26T08:14:13.977Z,62
2018-05-26T08:15:04.081Z,62.1
2018-05-26T08:15:54.627Z,62.2
2018-05-26T08:16:43.644Z,62.3
2018-05-26T08:17:34.174Z,62.4
2018-05-26T08:18:24.028Z,62.6
2018-05-26T08:19:14.138Z,62.7
2018-05-26T08:20:04.445Z,62.8
2018-05-26T08:20:54.503Z,62.9
2018-05-26T08:21:44.291Z,63
2018-05-26T08:22:34.071Z,63
2018-05-26T08:23:24.424Z,63.1
2018-05-26T08:24:14.624Z,63.3
2018-05-26T08:25:04.831Z,63.3
2018-05-26T08:25:54.669Z,63.4
2018-05-26T08:26:45.007Z,63.6
2018-05-26T08:27:34.743Z,63.6
2018-05-26T08:28:24.844Z,63.7
2018-05-26T08:29:14.588Z,63.8
2018-05-26T08:30:04.693Z,63.9
2018-05-26T08:30:55.331Z,64
2018-05-26T08:31:45.058Z,64.1
2018-05-26T08:32:35.473Z,64.2
2018-05-26T08:33:25.206Z,64.3
2018-05-26T08:34:15.541Z,64.2
2018-05-26T08:35:05.398Z,64.2
2018-05-26T08:35:55.952Z,64.3
2018-05-26T08:36:45.474Z,64.4
2018-05-26T08:37:35.541Z,64.6
2018-05-26T08:38:25.615Z,64.7
2018-05-26T08:39:14.805Z,64.8
2018-05-26T08:40:06.279Z,64.9
2018-05-26T08:40:56.055Z,64.9
2018-05-26T08:41:46.134Z,65
2018-05-26T08:42:36.197Z,65.1
2018-05-26T08:43:26.271Z,65.2
2018-05-26T08:44:15.794Z,65.3
2018-05-26T08:45:06.407Z,65.3
2018-05-26T08:45:56.254Z,65.4
2018-05-26T08:46:46.009Z,65.5
2018-05-26T08:47:36.576Z,65.6
2018-05-26T08:48:26.653Z,65.7
2018-05-26T08:49:16.474Z,65.8
2018-05-26T08:50:06.538Z,65.9
2018-05-26T08:50:56.546Z,65.9
2018-05-26T08:51:46.996Z,66.1
2018-05-26T08:52:37.288Z,66.2
2018-05-26T08:53:26.772Z,66.3
2018-05-26T08:54:16.837Z,66.1
2018-05-26T08:55:07.176Z,65.9
2018-05-26T08:55:57.516Z,65.5
2018-05-26T08:56:47.577Z,65.4
2018-05-26T08:57:36.509Z,65.5
2018-05-26T08:58:27.167Z,65.8
2018-05-26T08:59:17.500Z,65.9
2018-05-26T09:00:07.861Z,66.1
2018-05-26T09:00:57.956Z,66.3
2018-05-26T09:01:47.706Z,66.4
2018-05-26T09:02:37.745Z,66.4
2018-05-26T09:03:27.519Z,66.2
2018-05-26T09:04:17.924Z,65.9
2018-05-26T09:05:07.678Z,65.6
2018-05-26T09:05:57.475Z,65.3
2018-05-26T09:06:47.326Z,65.2
2018-05-26T09:07:37.856Z,65.3
2018-05-26T09:08:27.956Z,65.6
2018-05-26T09:09:18.257Z,65.7
2018-05-26T09:10:07.767Z,65.4
2018-05-26T09:10:58.410Z,65.2
2018-05-26T09:11:48.518Z,65.3
2018-05-26T09:12:38.261Z,65.6
2018-05-26T09:13:28.052Z,65.9
2018-05-26T09:14:17.841Z,66.3
2018-05-26T09:15:08.725Z,66.6
2018-05-26T09:15:59.082Z,66.6
2018-05-26T09:16:48.871Z,66.6
2018-05-26T09:17:38.720Z,66.5
2018-05-26T09:18:29.275Z,66.4
2018-05-26T09:19:19.346Z,66.6
2018-05-26T09:20:09.377Z,66.8
2018-05-26T09:20:59.185Z,66.8
2018-05-26T09:21:49.257Z,66.5
2018-05-26T09:22:38.579Z,66.1
2018-05-26T09:23:29.628Z,65.9
2018-05-26T09:24:19.477Z,65.7
2018-05-26T09:25:09.979Z,65.9
2018-05-26T09:25:58.909Z,66.4
2018-05-26T09:26:49.665Z,66.6
2018-05-26T09:27:39.428Z,66.4
2018-05-26T09:28:29.750Z,66.3
2018-05-26T09:29:19.839Z,66.6
2018-05-26T09:30:09.952Z,67
2018-05-26T09:31:00.240Z,67.3
2018-05-26T09:31:49.549Z,67.3
2018-05-26T09:32:40.071Z,67.1
2018-05-26T09:33:30.173Z,67
2018-05-26T09:34:20.508Z,67
2018-05-26T09:35:10.556Z,67.2
2018-05-26T09:36:00.068Z,67.4
2018-05-26T09:36:50.745Z,67.6
2018-05-26T09:37:40.259Z,67.8
2018-05-26T09:38:30.849Z,67.9
2018-05-26T09:39:20.363Z,68
2018-05-26T09:40:10.712Z,68.1
2018-05-26T09:41:00.515Z,68.2
2018-05-26T09:41:50.844Z,68.3
2018-05-26T09:42:41.146Z,68.4
2018-05-26T09:43:30.956Z,68.5
2018-05-26T09:44:21.350Z,68.6
2018-05-26T09:45:11.358Z,68.7
2018-05-26T09:46:00.845Z,68.8
2018-05-26T09:46:51.476Z,68.9
2018-05-26T09:47:41.596Z,69
2018-05-26T09:48:31.612Z,69.1
2018-05-26T09:49:21.425Z,69.1
2018-05-26T09:50:11.462Z,69.3
2018-05-26T09:51:01.514Z,69.3
2018-05-26T09:51:51.582Z,69.4
2018-05-26T09:52:41.913Z,69.5
2018-05-26T09:53:31.718Z,69.6
2018-05-26T09:54:21.783Z,69.7
2018-05-26T09:55:12.127Z,69.8
2018-05-26T09:56:02.732Z,69.8
2018-05-26T09:56:52.300Z,69.9
2018-05-26T09:57:42.043Z,70.1
2018-05-26T09:58:32.406Z,70.1
2018-05-26T09:59:21.920Z,70.2
2018-05-26T10:00:11.975Z,70.3
2018-05-26T10:01:02.356Z,70.3
2018-05-26T10:01:52.716Z,70.4
2018-05-26T10:02:42.439Z,70.5
2018-05-26T10:03:32.776Z,70.4
2018-05-26T10:04:22.913Z,70.4
2018-05-26T10:05:12.928Z,70.4
2018-05-26T10:06:02.151Z,70.5
2018-05-26T10:06:52.572Z,70.4
2018-05-26T10:07:42.848Z,70.4
2018-05-26T10:08:33.173Z,70.1
2018-05-26T10:09:23.213Z,69.9
2018-05-26T10:10:13.386Z,69.9
2018-05-26T10:11:03.180Z,70.1
2018-05-26T10:11:53.187Z,70.2
2018-05-26T10:12:43.331Z,69.9
2018-05-26T10:13:33.722Z,69.7
2018-05-26T10:14:23.369Z,69.6
2018-05-26T10:15:13.447Z,69.8
2018-05-26T10:16:03.788Z,70.1
2018-05-26T10:16:53.287Z,70.2
2018-05-26T10:17:43.332Z,70.3
2018-05-26T10:18:33.425Z,70.4
2018-05-26T10:19:23.473Z,70.6
2018-05-26T10:20:13.277Z,70.8
2018-05-26T10:21:04.163Z,70.8
2018-05-26T10:21:53.984Z,70.8
2018-05-26T10:22:43.997Z,70.9
2018-05-26T10:23:33.817Z,71.2
2018-05-26T10:24:24.206Z,71.3
2018-05-26T10:25:13.924Z,71.3
2018-05-26T10:26:04.549Z,71.2
2018-05-26T10:26:54.110Z,71
2018-05-26T10:27:44.692Z,70.7
2018-05-26T10:28:34.813Z,70.6
2018-05-26T10:29:24.511Z,70.9
2018-05-26T10:30:14.281Z,71.2
2018-05-26T10:31:04.401Z,71.1
2018-05-26T10:31:54.959Z,70.7
2018-05-26T10:32:45.123Z,70.5
2018-05-26T10:33:34.869Z,70.8
2018-05-26T10:34:25.267Z,71.1
2018-05-26T10:35:15.295Z,71.1
2018-05-26T10:36:05.138Z,70.8
2018-05-26T10:36:55.085Z,70.4
2018-05-26T10:37:45.455Z,70.4
2018-05-26T10:38:35.501Z,70.8
2018-05-26T10:39:25.568Z,71.1
2018-05-26T10:40:15.380Z,70.9
2018-05-26T10:41:05.445Z,70.6
2018-05-26T10:41:53.866Z,70.1
2018-05-26T10:42:43.371Z,69.9
2018-05-26T10:43:33.964Z,69.9
2018-05-26T10:44:24.055Z,70.2
2018-05-26T10:45:13.828Z,70.6
2018-05-26T10:46:04.189Z,71.1
2018-05-26T10:46:54.247Z,71.3
2018-05-26T10:47:46.274Z,71.4
2018-05-26T10:48:36.052Z,71.4
2018-05-26T10:49:26.394Z,71.2
2018-05-26T10:50:16.414Z,70.9
2018-05-26T10:51:06.214Z,70.9
2018-05-26T10:51:56.306Z,71.2
2018-05-26T10:52:46.356Z,71.5
2018-05-26T10:53:36.406Z,71.7
2018-05-26T10:54:26.783Z,71.8
2018-05-26T10:55:16.818Z,71.8
2018-05-26T10:56:06.878Z,71.6
2018-05-26T10:56:56.940Z,71.4
2018-05-26T10:57:45.866Z,71.6
2018-05-26T10:58:36.531Z,71.8
2018-05-26T10:59:27.179Z,72
2018-05-26T11:00:16.746Z,72.1
2018-05-26T11:01:07.316Z,72.1
2018-05-26T11:01:57.345Z,71.9
2018-05-26T11:02:45.199Z,71.6
2018-05-26T11:03:34.704Z,71.4
2018-05-26T11:04:25.950Z,71.6
2018-05-26T11:05:15.673Z,71.9
2018-05-26T11:06:05.762Z,72
2018-05-26T11:06:55.867Z,71.8
2018-05-26T11:07:45.871Z,71.3
2018-05-26T11:08:35.093Z,70.9
2018-05-26T11:09:26.067Z,70.8
2018-05-26T11:10:16.076Z,70.6